createdAt,value
2017-08-05T00:00:41.055Z,0.00
2017-08-05T00:01:30.093Z,0.00
2017-08-05T00:02:18.057Z,0.00
2017-08-05T00:03:06.340Z,0.00
2017-08-05T00:03:55.221Z,0.00
2017-08-05T00:04:43.228Z,0.00
2017-08-05T00:05:31.303Z,0.00
2017-08-05T00:06:20.287Z,0.00
2017-08-05T00:07:08.481Z,0.00
2017-08-05T00:07:56.488Z,0.00
2017-08-05T00:08:45.446Z,0.00
2017-08-05T00:09:33.593Z,0.00
2017-08-05T00:10:22.720Z,0.00
2017-08-05T00:11:17.416Z,0.00
2017-08-05T00:12:17.618Z,0.00
2017-08-05T00:13:12.756Z,0.00
2017-08-05T00:14:07.634Z,0.00
2017-08-05T00:15:07.777Z,0.00
2017-08-05T00:16:02.669Z,0.00
2017-08-05T00:16:57.803Z,0.00
2017-08-05T00:17:58.020Z,0.00
2017-08-05T00:18:52.725Z,0.00
2017-08-05T00:19:47.941Z,0.00
2017-08-05T00:20:49.014Z,0.00
2017-08-05T00:21:48.964Z,0.00
2017-08-05T00:22:48.970Z,0.00
2017-08-05T00:23:43.968Z,0.00
2017-08-05T00:24:38.208Z,0.00
2017-08-05T00:25:38.094Z,0.00
2017-08-05T00:26:33.102Z,0.00
2017-08-05T00:27:33.115Z,0.00
2017-08-05T00:28:27.208Z,0.00
2017-08-05T00:29:27.166Z,0.00
2017-08-05T00:30:22.193Z,0.00
2017-08-05T00:31:17.262Z,0.00
2017-08-05T00:32:06.336Z,0.00
2017-08-05T00:33:06.480Z,0.00
2017-08-05T00:33:54.356Z,0.00
2017-08-05T00:34:43.418Z,0.00
2017-08-05T00:35:31.569Z,0.00
2017-08-05T00:36:19.563Z,0.00
2017-08-05T00:37:08.558Z,0.00
2017-08-05T00:37:56.709Z,0.00
2017-08-05T00:38:50.632Z,0.00
2017-08-05T00:39:38.726Z,0.00
2017-08-05T00:40:33.276Z,0.00
2017-08-05T00:41:32.873Z,0.00
2017-08-05T00:42:27.713Z,0.00
2017-08-05T00:43:22.821Z,0.00
2017-08-05T00:44:23.858Z,0.00
2017-08-05T00:45:24.449Z,0.00
2017-08-05T00:46:23.961Z,0.00
2017-08-05T00:47:19.040Z,0.00
2017-08-05T00:48:13.008Z,0.00
2017-08-05T00:49:13.107Z,0.00
2017-08-05T00:50:13.163Z,0.00
2017-08-05T00:51:13.106Z,0.00
2017-08-05T00:52:13.191Z,0.00
2017-08-05T00:53:13.211Z,0.00
2017-08-05T00:54:13.674Z,0.00
2017-08-05T00:55:08.187Z,0.00
2017-08-05T00:56:02.308Z,0.00
2017-08-05T00:57:02.269Z,0.00
2017-08-05T00:57:57.392Z,0.00
2017-08-05T00:58:57.362Z,0.00
2017-08-05T00:59:51.709Z,0.00
2017-08-05T01:00:52.515Z,0.00
2017-08-05T01:01:53.524Z,0.00
2017-08-05T01:02:48.399Z,0.00
2017-08-05T01:03:42.612Z,0.00
2017-08-05T01:04:42.649Z,0.00
2017-08-05T01:05:37.663Z,0.00
2017-08-05T01:06:37.621Z,0.00
2017-08-05T01:07:37.683Z,0.00
2017-08-05T01:08:43.701Z,0.00
2017-08-05T01:09:38.665Z,0.00
2017-08-05T01:10:38.704Z,0.00
2017-08-05T01:11:33.800Z,0.00
2017-08-05T01:12:28.813Z,0.00
2017-08-05T01:13:29.918Z,0.00
2017-08-05T01:14:29.987Z,0.00
2017-08-05T01:15:30.531Z,0.00
2017-08-05T01:16:30.059Z,0.00
2017-08-05T01:17:30.946Z,0.00
2017-08-05T01:18:32.377Z,0.00
2017-08-05T01:19:26.141Z,0.00
2017-08-05T01:20:26.076Z,0.00
2017-08-05T01:21:21.110Z,0.00
2017-08-05T01:22:16.162Z,0.00
2017-08-05T01:23:17.143Z,0.00
2017-08-05T01:24:18.337Z,0.00
2017-08-05T01:25:13.321Z,0.00
2017-08-05T01:26:07.255Z,0.00
2017-08-05T01:27:07.396Z,0.00
2017-08-05T01:28:02.339Z,0.00
2017-08-05T01:29:02.425Z,0.00
2017-08-05T01:29:57.221Z,0.00
2017-08-05T01:30:57.024Z,0.00
2017-08-05T01:31:51.769Z,0.00
2017-08-05T01:32:46.626Z,0.00
2017-08-05T01:33:46.669Z,0.00
2017-08-05T01:34:41.576Z,0.00
2017-08-05T01:35:37.248Z,0.00
2017-08-05T01:36:37.210Z,0.00
2017-08-05T01:37:31.809Z,0.00
2017-08-05T01:38:26.994Z,0.00
2017-08-05T01:39:27.831Z,0.00
2017-08-05T01:40:28.797Z,0.00
2017-08-05T01:41:24.157Z,0.00
2017-08-05T01:42:17.876Z,0.00
2017-08-05T01:43:17.895Z,0.00
2017-08-05T01:44:17.921Z,0.00
2017-08-05T01:45:12.981Z,0.00
2017-08-05T01:46:07.557Z,0.00
2017-08-05T01:47:07.203Z,0.00
2017-08-05T01:48:02.092Z,0.00
2017-08-05T01:48:57.086Z,0.00
2017-08-05T01:49:58.267Z,0.00
2017-08-05T01:50:58.513Z,0.00
2017-08-05T01:51:58.452Z,0.00
2017-08-05T01:52:53.462Z,0.00
2017-08-05T01:53:47.714Z,0.00
2017-08-05T01:54:47.390Z,0.00
2017-08-05T01:55:42.821Z,0.00
2017-08-05T01:56:42.416Z,0.00
2017-08-05T01:57:36.477Z,0.00
2017-08-05T01:58:36.655Z,0.00
2017-08-05T01:59:31.591Z,0.00
2017-08-05T02:00:26.605Z,0.00
2017-08-05T02:01:26.593Z,0.00
2017-08-05T02:02:21.652Z,0.00
2017-08-05T02:03:16.976Z,0.00
2017-08-05T02:04:18.244Z,0.00
2017-08-05T02:05:17.725Z,0.00
2017-08-05T02:06:17.762Z,0.00
2017-08-05T02:07:12.765Z,0.00
2017-08-05T02:08:06.884Z,0.00
2017-08-05T02:09:07.088Z,0.00
2017-08-05T02:10:01.937Z,0.00
2017-08-05T02:11:01.941Z,0.00
2017-08-05T02:11:56.414Z,0.00
2017-08-05T02:12:56.111Z,0.00
2017-08-05T02:13:51.083Z,0.00
2017-08-05T02:14:44.986Z,0.00
2017-08-05T02:15:39.164Z,0.00
2017-08-05T02:16:28.244Z,0.00
2017-08-05T02:17:16.179Z,0.00
2017-08-05T02:18:04.204Z,0.00
2017-08-05T02:18:52.162Z,0.00
2017-08-05T02:19:46.281Z,0.00
2017-08-05T02:20:35.304Z,0.00
2017-08-05T02:21:23.440Z,0.00
2017-08-05T02:22:11.400Z,0.00
2017-08-05T02:23:12.442Z,0.00
2017-08-05T02:24:07.369Z,0.00
2017-08-05T02:24:57.000Z,0.00
2017-08-05T02:25:44.555Z,0.00
2017-08-05T02:26:33.597Z,0.00
2017-08-05T02:27:21.617Z,0.00
2017-08-05T02:28:09.688Z,0.00
2017-08-05T02:28:58.781Z,0.00
2017-08-05T02:29:47.353Z,0.00
2017-08-05T02:30:35.952Z,0.00
2017-08-05T02:31:30.713Z,0.00
2017-08-05T02:32:31.159Z,0.00
2017-08-05T02:33:25.934Z,0.00
2017-08-05T02:34:21.013Z,0.00
2017-08-05T02:35:21.242Z,0.00
2017-08-05T02:36:15.056Z,0.00
2017-08-05T02:37:10.137Z,0.00
2017-08-05T02:38:04.174Z,0.00
2017-08-05T02:38:59.179Z,0.00
2017-08-05T02:39:47.179Z,0.00
2017-08-05T02:40:36.550Z,0.00
2017-08-05T02:41:36.251Z,0.00
2017-08-05T02:42:24.409Z,0.00
2017-08-05T02:43:12.376Z,0.00
2017-08-05T02:44:00.411Z,0.00
2017-08-05T02:44:48.464Z,0.00
2017-08-05T02:45:37.506Z,0.00
2017-08-05T02:46:25.438Z,0.00
2017-08-05T02:47:14.809Z,0.00
2017-08-05T02:48:03.118Z,0.00
2017-08-05T02:48:50.692Z,0.00
2017-08-05T02:49:40.304Z,0.00
2017-08-05T02:50:27.757Z,0.00
2017-08-05T02:51:16.810Z,0.00
2017-08-05T02:52:04.803Z,0.00
2017-08-05T02:52:52.753Z,0.00
2017-08-05T02:53:40.933Z,0.00
2017-08-05T02:54:29.951Z,0.00
2017-08-05T02:55:17.911Z,0.00
2017-08-05T02:56:05.923Z,0.00
2017-08-05T02:56:55.059Z,0.00
2017-08-05T02:57:43.057Z,0.00
2017-08-05T02:58:31.077Z,0.00
2017-08-05T02:59:20.183Z,0.00
2017-08-05T03:00:08.815Z,0.00
2017-08-05T03:00:56.288Z,0.00
2017-08-05T03:01:50.398Z,0.00
2017-08-05T03:02:44.462Z,0.00
2017-08-05T03:03:38.476Z,0.00
2017-08-05T03:04:26.386Z,0.00
2017-08-05T03:05:14.453Z,0.00
2017-08-05T03:06:03.570Z,0.00
2017-08-05T03:06:51.569Z,0.00
2017-08-05T03:07:45.617Z,0.00
2017-08-05T03:08:33.722Z,0.00
2017-08-05T03:09:28.644Z,0.00
2017-08-05T03:10:28.743Z,0.00
2017-08-05T03:11:28.708Z,0.00
2017-08-05T03:12:28.863Z,0.00
2017-08-05T03:13:28.862Z,0.00
2017-08-05T03:14:22.752Z,0.00
2017-08-05T03:15:23.814Z,0.00
2017-08-05T03:16:24.000Z,0.00
2017-08-05T03:17:24.226Z,0.00
2017-08-05T03:18:18.998Z,0.00
2017-08-05T03:19:13.581Z,0.00
2017-08-05T03:20:12.995Z,0.00
2017-08-05T03:21:08.416Z,0.00
2017-08-05T03:22:03.145Z,0.00
2017-08-05T03:23:03.233Z,0.00
2017-08-05T03:23:58.176Z,0.00
2017-08-05T03:24:53.205Z,0.00
2017-08-05T03:25:53.304Z,0.00
2017-08-05T03:26:48.303Z,0.00
2017-08-05T03:27:48.321Z,0.00
2017-08-05T03:28:48.295Z,0.00
2017-08-05T03:29:48.742Z,0.00
2017-08-05T03:30:42.341Z,0.00
2017-08-05T03:31:42.957Z,0.00
2017-08-05T03:32:37.485Z,0.00
2017-08-05T03:33:37.504Z,0.00
2017-08-05T03:34:37.667Z,0.00
2017-08-05T03:35:37.580Z,0.00
2017-08-05T03:36:31.646Z,0.00
2017-08-05T03:37:31.653Z,0.00
2017-08-05T03:38:26.750Z,0.00
2017-08-05T03:39:22.133Z,0.00
2017-08-05T03:40:22.774Z,0.00
2017-08-05T03:41:22.759Z,0.00
2017-08-05T03:42:22.778Z,0.00
2017-08-05T03:43:23.362Z,0.00
2017-08-05T03:44:23.868Z,0.00
2017-08-05T03:45:23.944Z,0.00
2017-08-05T03:46:12.004Z,0.00
2017-08-05T03:47:00.344Z,0.00
2017-08-05T03:47:48.585Z,0.00
2017-08-05T03:48:36.442Z,0.00
2017-08-05T03:49:25.666Z,0.00
2017-08-05T03:50:14.477Z,0.00
2017-08-05T03:51:02.734Z,0.00
2017-08-05T03:51:50.760Z,0.00
2017-08-05T03:52:38.736Z,0.00
2017-08-05T03:53:27.796Z,0.00
2017-08-05T03:54:16.968Z,0.00
2017-08-05T03:55:10.997Z,0.00
2017-08-05T03:55:59.877Z,0.00
2017-08-05T03:56:48.106Z,0.00
2017-08-05T03:57:36.100Z,0.00
2017-08-05T03:58:30.189Z,0.00
2017-08-05T03:59:25.163Z,0.00
2017-08-05T04:00:25.334Z,0.00
2017-08-05T04:01:19.216Z,0.00
2017-08-05T04:02:14.331Z,0.00
2017-08-05T04:03:02.298Z,0.00
2017-08-05T04:03:51.430Z,0.00
2017-08-05T04:04:39.374Z,0.00
2017-08-05T04:05:28.521Z,0.00
2017-08-05T04:06:16.532Z,0.00
2017-08-05T04:07:04.616Z,0.00
2017-08-05T04:07:58.572Z,0.01
2017-08-05T04:08:46.564Z,0.01
2017-08-05T04:09:34.629Z,0.01
2017-08-05T04:10:28.911Z,0.01
2017-08-05T04:11:17.899Z,0.01
2017-08-05T04:12:05.880Z,0.01
2017-08-05T04:12:54.867Z,0.01
2017-08-05T04:13:42.987Z,0.01
2017-08-05T04:14:30.942Z,0.01
2017-08-05T04:15:19.999Z,0.01
2017-08-05T04:16:08.007Z,0.01
2017-08-05T04:16:56.162Z,0.01
2017-08-05T04:17:45.122Z,0.01
2017-08-05T04:18:33.142Z,0.01
2017-08-05T04:19:21.129Z,0.01
2017-08-05T04:20:09.851Z,0.01
2017-08-05T04:20:58.470Z,0.01
2017-08-05T04:21:47.460Z,0.01
2017-08-05T04:22:35.946Z,0.01
2017-08-05T04:23:24.324Z,0.01
2017-08-05T04:24:11.945Z,0.01
2017-08-05T04:25:00.002Z,0.01
2017-08-05T04:25:49.264Z,0.01
2017-08-05T04:26:43.509Z,0.01
2017-08-05T04:27:31.340Z,0.01
2017-08-05T04:28:19.284Z,0.01
2017-08-05T04:29:07.218Z,0.01
2017-08-05T04:29:56.342Z,0.01
2017-08-05T04:30:44.290Z,0.01
2017-08-05T04:31:32.430Z,0.01
2017-08-05T04:32:21.345Z,0.01
2017-08-05T04:33:09.520Z,0.01
2017-08-05T04:33:58.514Z,0.01
2017-08-05T04:34:46.445Z,0.01
2017-08-05T04:35:34.542Z,0.01
2017-08-05T04:36:24.222Z,0.01
2017-08-05T04:37:11.810Z,0.01
2017-08-05T04:37:59.711Z,0.01
2017-08-05T04:38:47.866Z,0.01
2017-08-05T04:39:36.882Z,0.01
2017-08-05T04:40:24.887Z,0.01
2017-08-05T04:41:14.351Z,0.01
2017-08-05T04:42:02.053Z,0.01
2017-08-05T04:42:56.506Z,0.01
2017-08-05T04:43:56.051Z,0.02
2017-08-05T04:44:51.066Z,0.02
2017-08-05T04:45:46.080Z,0.02
2017-08-05T04:46:40.334Z,0.02
2017-08-05T04:47:40.123Z,0.02
2017-08-05T04:48:35.213Z,0.02
2017-08-05T04:49:30.246Z,0.02
2017-08-05T04:50:30.352Z,0.02
2017-08-05T04:51:25.964Z,0.02
2017-08-05T04:52:20.408Z,0.02
2017-08-05T04:53:14.392Z,0.02
2017-08-05T04:54:16.151Z,0.02
2017-08-05T04:55:15.590Z,0.02
2017-08-05T04:56:15.547Z,0.02
2017-08-05T04:57:10.660Z,0.02
2017-08-05T04:58:10.904Z,0.02
2017-08-05T04:59:10.935Z,0.02
2017-08-05T05:00:10.688Z,0.02
2017-08-05T05:01:10.734Z,0.03
2017-08-05T05:02:05.608Z,0.03
2017-08-05T05:03:00.730Z,0.03
2017-08-05T05:03:49.794Z,0.03
2017-08-05T05:04:49.911Z,0.04
2017-08-05T05:05:49.833Z,0.04
2017-08-05T05:06:49.932Z,0.04
2017-08-05T05:07:39.053Z,0.04
2017-08-05T05:08:32.950Z,0.04
2017-08-05T05:09:34.094Z,0.04
2017-08-05T05:10:34.113Z,0.04
2017-08-05T05:11:23.115Z,0.03
2017-08-05T05:12:23.247Z,0.03
2017-08-05T05:13:23.279Z,0.04
2017-08-05T05:14:17.796Z,0.04
2017-08-05T05:15:12.710Z,0.03
2017-08-05T05:16:01.810Z,0.04
2017-08-05T05:16:49.903Z,0.03
2017-08-05T05:17:50.080Z,0.03
2017-08-05T05:18:45.054Z,0.03
2017-08-05T05:19:38.815Z,0.03
2017-08-05T05:20:39.978Z,0.03
2017-08-05T05:21:34.014Z,0.03
2017-08-05T05:22:21.931Z,0.03
2017-08-05T05:23:11.175Z,0.03
2017-08-05T05:24:05.132Z,0.03
2017-08-05T05:25:00.204Z,0.02
2017-08-05T05:25:49.061Z,0.02
2017-08-05T05:26:43.232Z,0.02
2017-08-05T05:27:43.410Z,0.03
2017-08-05T05:28:31.397Z,0.03
2017-08-05T05:29:31.342Z,0.03
2017-08-05T05:30:26.469Z,0.03
2017-08-05T05:31:26.432Z,0.03
2017-08-05T05:32:26.469Z,0.03
2017-08-05T05:33:14.629Z,0.04
2017-08-05T05:34:09.760Z,0.04
2017-08-05T05:35:09.614Z,0.03
2017-08-05T05:35:57.597Z,0.03
2017-08-05T05:36:52.644Z,0.03
2017-08-05T05:37:47.751Z,0.03
2017-08-05T05:38:41.828Z,0.04
2017-08-05T05:39:42.923Z,0.04
2017-08-05T05:40:43.559Z,0.04
2017-08-05T05:41:37.379Z,0.04
2017-08-05T05:42:37.462Z,0.03
2017-08-05T05:43:32.522Z,0.03
2017-08-05T05:44:27.872Z,0.03
2017-08-05T05:45:21.897Z,0.03
2017-08-05T05:46:22.621Z,0.03
2017-08-05T05:47:24.134Z,0.03
2017-08-05T05:48:18.640Z,0.04
2017-08-05T05:49:19.392Z,0.05
2017-08-05T05:50:24.803Z,0.05
2017-08-05T05:51:19.795Z,0.06
2017-08-05T05:52:14.407Z,0.06
2017-08-05T05:53:13.939Z,0.07
2017-08-05T05:54:08.964Z,0.07
2017-08-05T05:55:03.583Z,0.08
2017-08-05T05:56:03.557Z,0.07
2017-08-05T05:56:57.071Z,0.07
2017-08-05T05:57:57.584Z,0.07
2017-08-05T05:58:46.311Z,0.07
2017-08-05T05:59:40.096Z,0.07
2017-08-05T06:00:40.712Z,0.07
2017-08-05T06:01:35.335Z,0.07
2017-08-05T06:02:29.314Z,0.06
2017-08-05T06:03:24.237Z,0.06
2017-08-05T06:04:20.160Z,0.06
2017-08-05T06:05:19.413Z,0.07
2017-08-05T06:06:14.410Z,0.07
2017-08-05T06:07:08.512Z,0.07
2017-08-05T06:08:03.127Z,0.06
2017-08-05T06:08:57.594Z,0.06
2017-08-05T06:09:45.573Z,0.06
2017-08-05T06:10:33.765Z,0.07
2017-08-05T06:11:33.703Z,0.07
2017-08-05T06:12:28.780Z,0.08
2017-08-05T06:13:22.839Z,0.09
2017-08-05T06:14:24.142Z,0.09
2017-08-05T06:15:18.844Z,0.09
2017-08-05T06:16:18.856Z,0.09
2017-08-05T06:17:19.392Z,0.09
2017-08-05T06:18:18.873Z,0.10
2017-08-05T06:19:19.678Z,0.11
2017-08-05T06:20:19.530Z,0.11
2017-08-05T06:21:19.517Z,0.12
2017-08-05T06:22:19.056Z,0.13
2017-08-05T06:23:25.327Z,0.14
2017-08-05T06:24:21.011Z,0.14
2017-08-05T06:25:14.150Z,0.13
2017-08-05T06:26:14.333Z,0.13
2017-08-05T06:27:09.786Z,0.14
2017-08-05T06:28:04.626Z,0.14
2017-08-05T06:28:58.521Z,0.13
2017-08-05T06:29:53.948Z,0.13
2017-08-05T06:30:47.469Z,0.13
2017-08-05T06:31:48.421Z,0.12
2017-08-05T06:32:48.557Z,0.12
2017-08-05T06:33:44.004Z,0.13
2017-08-05T06:34:39.161Z,0.14
2017-08-05T06:35:39.252Z,0.14
2017-08-05T06:36:34.110Z,0.13
2017-08-05T06:37:27.753Z,0.12
2017-08-05T06:38:28.404Z,0.10
2017-08-05T06:39:28.291Z,0.10
2017-08-05T06:40:16.608Z,0.09
2017-08-05T06:41:04.580Z,0.08
2017-08-05T06:41:52.555Z,0.08
2017-08-05T06:42:47.560Z,0.08
2017-08-05T06:43:41.546Z,0.07
2017-08-05T06:44:35.606Z,0.07
2017-08-05T06:45:24.729Z,0.07
2017-08-05T06:46:13.820Z,0.07
2017-08-05T06:47:01.837Z,0.07
2017-08-05T06:47:55.802Z,0.07
2017-08-05T06:48:49.867Z,0.07
2017-08-05T06:49:44.960Z,0.07
2017-08-05T06:50:44.985Z,0.07
2017-08-05T06:51:44.987Z,0.08
2017-08-05T06:52:40.019Z,0.08
2017-08-05T06:53:34.125Z,0.08
2017-08-05T06:54:28.121Z,0.08
2017-08-05T06:55:16.182Z,0.08
2017-08-05T06:56:10.345Z,0.09
2017-08-05T06:57:04.269Z,0.09
2017-08-05T06:57:58.304Z,0.10
2017-08-05T06:58:47.369Z,0.11
2017-08-05T06:59:35.451Z,0.11
2017-08-05T07:00:36.352Z,0.11
2017-08-05T07:01:24.625Z,0.11
2017-08-05T07:02:18.578Z,0.10
2017-08-05T07:03:06.556Z,0.09
2017-08-05T07:03:55.580Z,0.08
2017-08-05T07:04:44.689Z,0.08
2017-08-05T07:05:39.613Z,0.08
2017-08-05T07:06:39.791Z,0.08
2017-08-05T07:07:34.852Z,0.08
2017-08-05T07:08:23.905Z,0.09
2017-08-05T07:09:11.845Z,0.09
2017-08-05T07:09:59.938Z,0.09
2017-08-05T07:10:53.946Z,0.09
2017-08-05T07:11:49.008Z,0.09
2017-08-05T07:12:37.057Z,0.10
2017-08-05T07:13:26.134Z,0.09
2017-08-05T07:14:15.018Z,0.10
2017-08-05T07:15:04.073Z,0.10
2017-08-05T07:15:53.272Z,0.11
2017-08-05T07:16:53.270Z,0.11
2017-08-05T07:17:42.325Z,0.11
2017-08-05T07:18:30.260Z,0.12
2017-08-05T07:19:18.389Z,0.12
2017-08-05T07:20:07.584Z,0.12
2017-08-05T07:20:55.517Z,0.12
2017-08-05T07:21:43.482Z,0.12
2017-08-05T07:22:32.645Z,0.11
2017-08-05T07:23:32.630Z,0.10
2017-08-05T07:24:26.641Z,0.10
2017-08-05T07:25:27.737Z,0.10
2017-08-05T07:26:21.804Z,0.10
2017-08-05T07:27:21.782Z,0.10
2017-08-05T07:28:16.855Z,0.10
2017-08-05T07:29:04.889Z,0.10
2017-08-05T07:30:04.935Z,0.10
2017-08-05T07:30:58.918Z,0.10
2017-08-05T07:31:58.985Z,0.10
2017-08-05T07:32:58.993Z,0.09
2017-08-05T07:34:05.074Z,0.09
2017-08-05T07:35:00.080Z,0.10
2017-08-05T07:35:48.126Z,0.10
2017-08-05T07:36:36.110Z,0.11
2017-08-05T07:37:25.239Z,0.12
2017-08-05T07:38:20.229Z,0.13
2017-08-05T07:39:14.545Z,0.13
2017-08-05T07:40:08.295Z,0.14
2017-08-05T07:40:57.421Z,0.14
2017-08-05T07:41:51.550Z,0.15
2017-08-05T07:42:40.559Z,0.15
2017-08-05T07:43:40.477Z,0.15
2017-08-05T07:44:29.609Z,0.15
2017-08-05T07:45:18.546Z,0.16
2017-08-05T07:46:12.623Z,0.17
2017-08-05T07:47:01.759Z,0.18
2017-08-05T07:47:56.803Z,0.19
2017-08-05T07:48:45.740Z,0.20
2017-08-05T07:49:39.924Z,0.19
2017-08-05T07:50:33.956Z,0.18
2017-08-05T07:51:27.982Z,0.17
2017-08-05T07:52:22.977Z,0.16
2017-08-05T07:53:17.050Z,0.15
2017-08-05T07:54:12.082Z,0.13
2017-08-05T07:55:07.099Z,0.12
2017-08-05T07:56:02.134Z,0.11
2017-08-05T07:56:57.193Z,0.10
2017-08-05T07:57:57.356Z,0.09
2017-08-05T07:58:52.266Z,0.09
2017-08-05T07:59:52.273Z,0.10
2017-08-05T08:00:53.258Z,0.10
2017-08-05T08:01:54.338Z,0.10
2017-08-05T08:02:48.326Z,0.10
2017-08-05T08:03:49.513Z,0.11
2017-08-05T08:04:49.501Z,0.12
2017-08-05T08:05:37.181Z,0.13
2017-08-05T08:06:32.482Z,0.14
2017-08-05T08:07:26.593Z,0.14
2017-08-05T08:08:20.548Z,0.15
2017-08-05T08:09:20.846Z,0.16
2017-08-05T08:10:20.817Z,0.16
2017-08-05T08:11:08.625Z,0.17
2017-08-05T08:11:57.061Z,0.17
2017-08-05T08:12:45.957Z,0.18
2017-08-05T08:13:34.957Z,0.19
2017-08-05T08:14:28.974Z,0.19
2017-08-05T08:15:18.071Z,0.19
2017-08-05T08:16:12.168Z,0.18
2017-08-05T08:17:07.074Z,0.17
2017-08-05T08:18:07.242Z,0.16
2017-08-05T08:19:02.217Z,0.15
2017-08-05T08:19:57.300Z,0.14
2017-08-05T08:20:57.243Z,0.14
2017-08-05T08:21:52.044Z,0.14
2017-08-05T08:22:52.385Z,0.14
2017-08-05T08:23:53.475Z,0.15
2017-08-05T08:24:54.534Z,0.14
2017-08-05T08:25:54.501Z,0.15
2017-08-05T08:26:54.450Z,0.16
2017-08-05T08:27:48.364Z,0.18
2017-08-05T08:28:49.553Z,0.19
2017-08-05T08:29:49.746Z,0.20
2017-08-05T08:30:44.648Z,0.20
2017-08-05T08:31:39.596Z,0.20
2017-08-05T08:32:39.596Z,0.20
2017-08-05T08:33:33.285Z,0.20
2017-08-05T08:34:33.639Z,0.21
2017-08-05T08:35:33.418Z,0.21
2017-08-05T08:36:22.997Z,0.20
2017-08-05T08:37:11.957Z,0.19
2017-08-05T08:38:06.907Z,0.17
2017-08-05T08:39:06.911Z,0.16
2017-08-05T08:40:02.148Z,0.16
2017-08-05T08:40:56.091Z,0.16
2017-08-05T08:41:45.234Z,0.17
2017-08-05T08:42:45.300Z,0.17
2017-08-05T08:43:39.931Z,0.18
2017-08-05T08:44:28.377Z,0.17
2017-08-05T08:45:28.161Z,0.16
2017-08-05T08:46:16.073Z,0.16
2017-08-05T08:47:04.548Z,0.16
2017-08-05T08:47:53.591Z,0.16
2017-08-05T08:48:48.362Z,0.16
2017-08-05T08:49:36.640Z,0.17
2017-08-05T08:50:25.713Z,0.20
2017-08-05T08:51:13.791Z,0.20
2017-08-05T08:52:01.760Z,0.20
2017-08-05T08:52:50.772Z,0.19
2017-08-05T08:53:45.829Z,0.18
2017-08-05T08:54:39.952Z,0.17
2017-08-05T08:55:28.855Z,0.17
2017-08-05T08:56:18.082Z,0.18
2017-08-05T08:57:13.125Z,0.19
2017-08-05T08:58:12.909Z,0.20
2017-08-05T08:59:01.034Z,0.21
2017-08-05T08:59:56.333Z,0.22
2017-08-05T09:00:55.882Z,0.25
2017-08-05T09:01:56.253Z,0.29
2017-08-05T09:02:56.076Z,0.31
2017-08-05T09:03:56.286Z,0.33
2017-08-05T09:04:51.342Z,0.33
2017-08-05T09:05:46.445Z,0.33
2017-08-05T09:06:40.490Z,0.32
2017-08-05T09:07:28.648Z,0.32
2017-08-05T09:08:29.607Z,0.32
2017-08-05T09:09:30.549Z,0.31
2017-08-05T09:10:24.626Z,0.29
2017-08-05T09:11:18.596Z,0.28
2017-08-05T09:12:18.733Z,0.26
2017-08-05T09:13:18.737Z,0.24
2017-08-05T09:14:07.857Z,0.24
2017-08-05T09:15:01.925Z,0.25
2017-08-05T09:15:55.892Z,0.25
2017-08-05T09:16:56.939Z,0.25
2017-08-05T09:17:56.997Z,0.25
2017-08-05T09:18:57.023Z,0.25
2017-08-05T09:19:46.048Z,0.24
2017-08-05T09:20:40.274Z,0.23
2017-08-05T09:21:35.157Z,0.22
2017-08-05T09:22:22.974Z,0.22
2017-08-05T09:23:17.232Z,0.22
2017-08-05T09:24:11.327Z,0.22
2017-08-05T09:25:00.280Z,0.22
2017-08-05T09:25:54.324Z,0.20
2017-08-05T09:26:43.328Z,0.18
2017-08-05T09:27:37.603Z,0.16
2017-08-05T09:28:26.619Z,0.14
2017-08-05T09:29:20.680Z,0.13
2017-08-05T09:30:14.638Z,0.11
2017-08-05T09:31:02.701Z,0.12
2017-08-05T09:31:51.751Z,0.13
2017-08-05T09:32:46.827Z,0.13
2017-08-05T09:33:41.746Z,0.13
2017-08-05T09:34:36.997Z,0.12
2017-08-05T09:35:30.949Z,0.13
2017-08-05T09:36:30.982Z,0.15
2017-08-05T09:37:26.036Z,0.18
2017-08-05T09:38:20.055Z,0.21
2017-08-05T09:39:14.117Z,0.22
2017-08-05T09:40:08.216Z,0.20
2017-08-05T09:41:08.146Z,0.17
2017-08-05T09:42:03.202Z,0.16
2017-08-05T09:42:58.229Z,0.16
2017-08-05T09:43:52.258Z,0.18
2017-08-05T09:44:53.343Z,0.21
2017-08-05T09:45:48.439Z,0.22
2017-08-05T09:46:42.412Z,0.20
2017-08-05T09:47:30.450Z,0.17
2017-08-05T09:48:24.550Z,0.14
2017-08-05T09:49:13.519Z,0.13
2017-08-05T09:50:08.480Z,0.14
2017-08-05T09:51:08.665Z,0.16
2017-08-05T09:51:57.708Z,0.17
2017-08-05T09:52:45.759Z,0.18
2017-08-05T09:53:34.760Z,0.20
2017-08-05T09:54:34.900Z,0.23
2017-08-05T09:55:23.963Z,0.25
2017-08-05T09:56:12.938Z,0.26
2017-08-05T09:57:06.959Z,0.27
2017-08-05T09:58:01.034Z,0.28
2017-08-05T09:58:50.047Z,0.28
2017-08-05T09:59:38.168Z,0.28
2017-08-05T10:00:27.246Z,0.29
2017-08-05T10:01:22.353Z,0.31
2017-08-05T10:02:22.224Z,0.35
2017-08-05T10:03:11.429Z,0.38
2017-08-05T10:04:00.330Z,0.40
2017-08-05T10:04:54.457Z,0.40
2017-08-05T10:05:48.417Z,0.38
2017-08-05T10:06:37.510Z,0.38
2017-08-05T10:07:25.650Z,0.41
2017-08-05T10:08:20.543Z,0.43
2017-08-05T10:09:15.849Z,0.45
2017-08-05T10:10:10.817Z,0.50
2017-08-05T10:11:04.800Z,0.53
2017-08-05T10:12:05.868Z,0.46
2017-08-05T10:13:05.891Z,0.41
2017-08-05T10:13:54.032Z,0.41
2017-08-05T10:14:47.964Z,0.41
2017-08-05T10:15:37.123Z,0.46
2017-08-05T10:16:32.057Z,0.45
2017-08-05T10:17:20.228Z,0.45
2017-08-05T10:18:08.200Z,0.41
2017-08-05T10:18:56.334Z,0.40
2017-08-05T10:19:56.253Z,0.42
2017-08-05T10:20:45.314Z,0.82
2017-08-05T10:21:34.204Z,0.59
2017-08-05T10:22:29.631Z,0.60
2017-08-05T10:23:23.518Z,0.81
2017-08-05T10:24:17.574Z,1.00
2017-08-05T10:25:11.631Z,0.57
2017-08-05T10:26:06.672Z,0.50
2017-08-05T10:27:00.690Z,0.45
2017-08-05T10:28:00.751Z,0.40
2017-08-05T10:28:49.826Z,0.39
2017-08-05T10:29:49.819Z,0.38
2017-08-05T10:30:49.976Z,0.43
2017-08-05T10:31:44.009Z,0.48
2017-08-05T10:32:32.019Z,0.50
2017-08-05T10:33:27.153Z,0.47
2017-08-05T10:34:21.146Z,0.45
2017-08-05T10:35:10.115Z,0.43
2017-08-05T10:35:58.289Z,0.39
2017-08-05T10:36:52.313Z,0.34
2017-08-05T10:37:41.312Z,0.31
2017-08-05T10:38:30.586Z,0.30
2017-08-05T10:39:30.405Z,0.30
2017-08-05T10:40:25.499Z,0.30
2017-08-05T10:41:19.555Z,0.31
2017-08-05T10:42:25.463Z,0.31
2017-08-05T10:43:14.674Z,0.33
2017-08-05T10:44:09.638Z,0.35
2017-08-05T10:45:09.753Z,0.38
2017-08-05T10:46:03.859Z,0.40
2017-08-05T10:46:57.854Z,0.41
2017-08-05T10:47:46.831Z,0.39
2017-08-05T10:48:41.924Z,0.37
2017-08-05T10:49:37.023Z,0.36
2017-08-05T10:50:31.022Z,0.36
2017-08-05T10:51:32.220Z,0.35
2017-08-05T10:52:20.218Z,0.34
2017-08-05T10:53:20.168Z,0.31
2017-08-05T10:54:21.213Z,0.29
2017-08-05T10:55:16.460Z,0.29
2017-08-05T10:56:16.443Z,0.29
2017-08-05T10:57:22.378Z,0.31
2017-08-05T10:58:17.379Z,0.36
2017-08-05T10:59:11.412Z,0.40
2017-08-05T11:00:12.497Z,0.41
2017-08-05T11:01:13.671Z,0.40
2017-08-05T11:02:13.668Z,0.40
2017-08-05T11:03:07.671Z,0.40
2017-08-05T11:04:01.762Z,0.40
2017-08-05T11:04:50.816Z,0.40
2017-08-05T11:05:44.795Z,0.40
2017-08-05T11:06:38.875Z,0.40
2017-08-05T11:07:33.928Z,0.41
2017-08-05T11:08:28.993Z,0.42
2017-08-05T11:09:23.010Z,0.43
2017-08-05T11:10:12.125Z,0.44
2017-08-05T11:11:06.123Z,0.44
2017-08-05T11:12:06.269Z,0.44
2017-08-05T11:13:06.255Z,0.44
2017-08-05T11:14:06.332Z,0.42
2017-08-05T11:15:06.405Z,0.41
2017-08-05T11:15:55.370Z,0.41
2017-08-05T11:16:43.602Z,0.43
2017-08-05T11:17:37.506Z,0.44
2017-08-05T11:18:26.526Z,0.45
2017-08-05T11:19:21.659Z,0.46
2017-08-05T11:20:15.719Z,0.46
2017-08-05T11:21:10.817Z,0.45
2017-08-05T11:22:04.728Z,0.44
2017-08-05T11:22:59.901Z,0.38
2017-08-05T11:24:00.806Z,0.34
2017-08-05T11:24:55.895Z,0.32
2017-08-05T11:25:44.985Z,0.31
2017-08-05T11:26:39.036Z,0.31
2017-08-05T11:27:39.108Z,0.32
2017-08-05T11:28:28.406Z,0.33
2017-08-05T11:29:17.085Z,0.35
2017-08-05T11:30:12.210Z,0.50
2017-08-05T11:31:06.245Z,0.38
2017-08-05T11:32:00.338Z,0.32
2017-08-05T11:32:48.409Z,0.28
2017-08-05T11:33:37.501Z,0.25
2017-08-05T11:34:32.476Z,0.24
2017-08-05T11:35:26.555Z,0.26
2017-08-05T11:36:21.525Z,0.30
2017-08-05T11:37:16.684Z,0.34
2017-08-05T11:38:05.614Z,0.36
2017-08-05T11:38:59.825Z,0.34
2017-08-05T11:39:48.837Z,0.29
2017-08-05T11:40:37.846Z,0.25
2017-08-05T11:41:26.819Z,0.24
2017-08-05T11:42:22.009Z,0.27
2017-08-05T11:43:10.974Z,0.40
2017-08-05T11:44:05.237Z,0.38
2017-08-05T11:44:54.039Z,0.37
2017-08-05T11:45:48.116Z,0.44
2017-08-05T11:46:43.168Z,0.38
2017-08-05T11:47:44.320Z,0.39
2017-08-05T11:48:38.356Z,0.37
2017-08-05T11:49:32.360Z,0.36
2017-08-05T11:50:26.441Z,0.35
2017-08-05T11:51:20.465Z,0.35
2017-08-05T11:52:14.608Z,0.34
2017-08-05T11:53:09.543Z,0.34
2017-08-05T11:54:09.610Z,0.37
2017-08-05T11:55:03.783Z,0.37
2017-08-05T11:56:03.763Z,0.35
2017-08-05T11:56:58.818Z,0.35
2017-08-05T11:57:52.798Z,0.33
2017-08-05T11:58:46.871Z,0.33
2017-08-05T11:59:40.937Z,0.35
2017-08-05T12:00:34.954Z,0.36
2017-08-05T12:01:35.102Z,0.36
2017-08-05T12:02:29.059Z,0.62